Time;durP1;ratioP1;P1;durP2;ratioP2;P2;SDS_P1;SDS_P2;PMS_P1;PMS_P2;Temp;Humidity;BMP_temperature;BMP_pressure;BME280_temperature;BME280_humidity;BME280_pressure;Samples;Min_cycle;Max_cycle;Signal;HPM_P1;HPM_P2
2023/03/24 00:01:01;;;;;;;2.83;2.63;;;;;;;;;;4976462;28;21265;-69
2023/03/24 00:03:29;;;;;;;2.40;2.30;;;;;;;;;;4977113;28;20445;-68
2023/03/24 00:06:00;;;;;;;2.20;2.20;;;;;;;;;;4977075;28;20476;-69
2023/03/24 00:08:29;;;;;;;2.13;2.03;;;;;;;;;;4970276;28;20448;-69
2023/03/24 00:10:57;;;;;;;4.33;2.87;;;;;;;;;;4974819;28;20960;-69
2023/03/24 00:13:23;;;;;;;2.50;2.50;;;;;;;;;;4976310;28;20476;-69
2023/03/24 00:15:49;;;;;;;2.87;2.73;;;;;;;;;;4976494;28;20444;-69
2023/03/24 00:18:15;;;;;;;4.70;2.90;;;;;;;;;;4977587;28;20421;-69
2023/03/24 00:20:41;;;;;;;2.50;2.40;;;;;;;;;;4977653;28;20937;-68
2023/03/24 00:23:07;;;;;;;2.97;2.77;;;;;;;;;;4977444;28;20440;-69
2023/03/24 00:25:35;;;;;;;3.07;2.87;;;;;;;;;;4977687;28;20807;-69
2023/03/24 00:28:02;;;;;;;11.93;6.30;;;;;;;;;;4976514;28;20936;-69
2023/03/24 00:30:28;;;;;;;19.50;12.00;;;;;;;;;;4975863;28;20445;-69
2023/03/24 00:32:54;;;;;;;25.83;12.53;;;;;;;;;;4977138;28;20811;-68
2023/03/24 00:35:20;;;;;;;27.23;11.10;;;;;;;;;;4975642;28;20466;-68
2023/03/24 00:37:48;;;;;;;29.20;14.73;;;;;;;;;;4976636;28;20528;-68
2023/03/24 00:40:16;;;;;;;22.20;11.00;;;;;;;;;;4975858;28;20473;-68
2023/03/24 00:42:46;;;;;;;7.97;7.27;;;;;;;;;;4975156;28;20508;-69
2023/03/24 00:45:19;;;;;;;10.93;7.37;;;;;;;;;;4977377;28;20976;-69
2023/03/24 00:47:48;;;;;;;5.13;4.47;;;;;;;;;;4976360;28;20449;-68
2023/03/24 00:50:15;;;;;;;10.63;6.83;;;;;;;;;;4976243;28;20429;-68
2023/03/24 00:52:43;;;;;;;10.13;7.57;;;;;;;;;;4976149;28;20441;-69
2023/03/24 00:55:09;;;;;;;7.33;5.93;;;;;;;;;;4976507;28;20512;-68
2023/03/24 00:57:35;;;;;;;6.13;5.00;;;;;;;;;;4974990;28;20454;-69
2023/03/24 01:00:09;;;;;;;8.97;4.30;;;;;;;;;;4970862;28;20476;-68
2023/03/24 01:02:35;;;;;;;4.37;3.20;;;;;;;;;;4969066;28;20460;-68
2023/03/24 01:05:01;;;;;;;3.80;3.60;;;;;;;;;;4983513;28;21839;-69
2023/03/24 01:07:29;;;;;;;2.50;2.27;;;;;;;;;;4968277;28;20462;-68
2023/03/24 01:09:58;;;;;;;2.47;2.40;;;;;;;;;;4969914;28;20418;-68
2023/03/24 01:12:24;;;;;;;2.10;2.00;;;;;;;;;;4968544;28;20540;-69
2023/03/24 01:14:51;;;;;;;2.37;2.27;;;;;;;;;;4969898;28;21719;-68
2023/03/24 01:17:18;;;;;;;2.33;2.23;;;;;;;;;;4968073;28;20827;-68
2023/03/24 01:19:44;;;;;;;3.47;3.27;;;;;;;;;;4966867;28;20430;-68
2023/03/24 01:22:11;;;;;;;2.57;2.37;;;;;;;;;;4967963;28;20552;-68
2023/03/24 01:24:37;;;;;;;3.10;2.90;;;;;;;;;;4965712;28;20442;-69
2023/03/24 01:27:03;;;;;;;2.17;2.07;;;;;;;;;;4967804;28;20829;-68
2023/03/24 01:29:29;;;;;;;2.03;1.90;;;;;;;;;;4967968;28;20444;-69
2023/03/24 01:31:55;;;;;;;8.63;2.77;;;;;;;;;;4968100;28;20458;-68
2023/03/24 01:34:21;;;;;;;2.60;2.40;;;;;;;;;;4967706;28;20442;-68
2023/03/24 01:36:48;;;;;;;2.60;2.50;;;;;;;;;;4967855;28;20471;-69
2023/03/24 01:39:15;;;;;;;2.67;2.57;;;;;;;;;;4966422;28;20445;-68
2023/03/24 01:41:41;;;;;;;2.67;2.50;;;;;;;;;;4968723;28;20489;-68
2023/03/24 01:44:42;;;;;;;2.90;2.70;;;;;;;;;;4967529;28;20500;-69
2023/03/24 01:47:09;;;;;;;2.60;2.40;;;;;;;;;;4956195;28;20599;-68
2023/03/24 01:49:45;;;;;;;3.37;2.20;;;;;;;;;;4961362;28;20442;-68
2023/03/24 01:52:13;;;;;;;2.20;2.10;;;;;;;;;;4967838;28;20512;-68
2023/03/24 01:54:45;;;;;;;2.47;2.47;;;;;;;;;;4967707;28;20926;-69
2023/03/24 01:57:14;;;;;;;2.03;1.80;;;;;;;;;;4967386;28;20446;-68
2023/03/24 01:59:42;;;;;;;2.17;2.07;;;;;;;;;;4968049;28;20537;-68
2023/03/24 02:02:12;;;;;;;4.70;1.77;;;;;;;;;;4968145;28;20490;-68
2023/03/24 02:04:49;;;;;;;2.33;2.30;;;;;;;;;;4982883;28;20715;-68
2023/03/24 02:07:29;;;;;;;2.63;2.53;;;;;;;;;;4967073;28;20466;-68
2023/03/24 02:09:55;;;;;;;2.07;1.97;;;;;;;;;;4968113;28;20517;-69
2023/03/24 02:12:21;;;;;;;2.33;2.23;;;;;;;;;;4968375;28;20947;-69
2023/03/24 02:14:47;;;;;;;2.57;2.47;;;;;;;;;;4967948;28;20433;-68
2023/03/24 02:17:13;;;;;;;3.07;2.97;;;;;;;;;;4967922;28;20513;-68
2023/03/24 02:19:58;;;;;;;1.90;1.77;;;;;;;;;;4968243;28;20429;-68
2023/03/24 02:22:25;;;;;;;5.13;1.90;;;;;;;;;;4967668;28;20503;-69
2023/03/24 02:24:50;;;;;;;1.47;1.37;;;;;;;;;;4974814;28;20985;-69
2023/03/24 02:27:19;;;;;;;1.20;1.20;;;;;;;;;;4967600;28;20430;-68
2023/03/24 02:30:05;;;;;;;2.07;1.70;;;;;;;;;;4968384;28;20222;-68
2023/03/24 02:32:37;;;;;;;1.63;1.53;;;;;;;;;;4967863;28;20949;-68
2023/03/24 02:35:18;;;;;;;1.47;1.43;;;;;;;;;;4983213;28;20430;-68
2023/03/24 02:37:53;;;;;;;1.40;1.30;;;;;;;;;;4974382;28;20438;-68
2023/03/24 02:40:23;;;;;;;7.70;1.40;;;;;;;;;;4969257;28;20468;-67
2023/03/24 02:42:49;;;;;;;2.07;1.77;;;;;;;;;;4968714;28;20438;-68
2023/03/24 02:45:34;;;;;;;5.30;2.93;;;;;;;;;;4976468;28;20422;-68
2023/03/24 02:48:19;;;;;;;1.63;1.63;;;;;;;;;;4968661;28;20438;-68
2023/03/24 02:50:50;;;;;;;1.43;1.33;;;;;;;;;;4970459;28;20442;-68
2023/03/24 02:53:22;;;;;;;1.90;1.80;;;;;;;;;;4971284;28;21707;-68
2023/03/24 02:55:50;;;;;;;2.33;2.13;;;;;;;;;;4971253;28;20430;-68
2023/03/24 02:58:19;;;;;;;2.47;1.80;;;;;;;;;;4976940;28;20432;-68
2023/03/24 03:00:47;;;;;;;1.50;1.50;;;;;;;;;;4974763;28;20465;-68
2023/03/24 03:03:13;;;;;;;2.87;1.90;;;;;;;;;;4971101;28;20476;-68
2023/03/24 03:05:43;;;;;;;2.10;1.80;;;;;;;;;;4969452;28;20462;-67
2023/03/24 03:08:11;;;;;;;1.67;1.57;;;;;;;;;;4970890;28;20441;-68
2023/03/24 03:10:40;;;;;;;1.33;1.33;;;;;;;;;;4971190;28;20427;-68
2023/03/24 03:13:08;;;;;;;6.20;1.40;;;;;;;;;;4970044;28;20906;-68
2023/03/24 03:15:37;;;;;;;3.90;1.07;;;;;;;;;;4970047;28;20947;-68
2023/03/24 03:18:22;;;;;;;0.97;0.97;;;;;;;;;;4970830;28;20921;-68
2023/03/24 03:20:53;;;;;;;1.50;1.13;;;;;;;;;;4970588;28;21107;-68
2023/03/24 03:23:23;;;;;;;0.70;0.70;;;;;;;;;;4969990;28;20446;-67
2023/03/24 03:25:51;;;;;;;0.97;0.97;;;;;;;;;;4970812;28;20437;-68
2023/03/24 03:28:20;;;;;;;0.70;0.70;;;;;;;;;;4984689;28;20421;-68
2023/03/24 03:30:48;;;;;;;1.03;1.03;;;;;;;;;;4970107;28;20429;-68
2023/03/24 03:33:16;;;;;;;1.00;1.00;;;;;;;;;;4969998;28;20525;-68
2023/03/24 03:35:45;;;;;;;0.80;0.80;;;;;;;;;;4969582;28;20801;-68
2023/03/24 03:38:14;;;;;;;1.33;1.00;;;;;;;;;;4970674;28;20419;-68
2023/03/24 03:40:50;;;;;;;1.03;1.03;;;;;;;;;;4970215;28;20485;-68
2023/03/24 03:43:16;;;;;;;1.60;1.50;;;;;;;;;;4970242;28;21185;-68
2023/03/24 03:45:42;;;;;;;2.00;1.50;;;;;;;;;;4969267;28;20438;-68
2023/03/24 03:48:08;;;;;;;1.10;1.10;;;;;;;;;;4969356;28;20994;-68
2023/03/24 03:50:34;;;;;;;1.30;1.30;;;;;;;;;;4969673;28;20483;-68
2023/03/24 03:53:00;;;;;;;1.33;1.33;;;;;;;;;;4973632;28;20452;-68
2023/03/24 03:55:26;;;;;;;1.10;1.00;;;;;;;;;;4970607;28;20433;-68
2023/03/24 03:57:53;;;;;;;0.83;0.83;;;;;;;;;;4967923;28;20541;-68
2023/03/24 04:00:21;;;;;;;0.80;0.80;;;;;;;;;;4967422;28;20500;-68
2023/03/24 04:03:06;;;;;;;0.83;0.83;;;;;;;;;;4967919;28;20503;-68
2023/03/24 04:05:37;;;;;;;2.50;1.07;;;;;;;;;;4984011;28;20973;-67
2023/03/24 04:08:28;;;;;;;1.13;1.10;;;;;;;;;;4969499;28;20617;-68
2023/03/24 04:10:54;;;;;;;1.53;1.47;;;;;;;;;;4969346;28;20440;-68
2023/03/24 04:13:36;;;;;;;1.83;1.37;;;;;;;;;;4968827;28;20574;-68
2023/03/24 04:16:08;;;;;;;2.20;2.00;;;;;;;;;;4969838;28;20449;-68
2023/03/24 04:18:40;;;;;;;2.03;1.83;;;;;;;;;;4984384;28;20933;-68
2023/03/24 04:21:32;;;;;;;2.57;2.27;;;;;;;;;;4968796;28;20494;-68
2023/03/24 04:24:04;;;;;;;2.17;2.17;;;;;;;;;;4969305;28;20438;-69
2023/03/24 04:26:47;;;;;;;2.40;1.80;;;;;;;;;;4968757;28;20445;-68
2023/03/24 04:29:17;;;;;;;1.67;1.67;;;;;;;;;;4969650;28;20477;-68
2023/03/24 04:31:43;;;;;;;2.07;2.07;;;;;;;;;;4968777;28;20999;-68
2023/03/24 04:34:19;;;;;;;4.10;1.93;;;;;;;;;;4968621;28;20442;-68
2023/03/24 04:36:53;;;;;;;2.30;2.30;;;;;;;;;;4967437;28;21147;-68
2023/03/24 04:39:26;;;;;;;1.40;1.40;;;;;;;;;;4969125;28;20433;-68
2023/03/24 04:41:53;;;;;;;1.63;1.63;;;;;;;;;;4968488;28;20493;-68
2023/03/24 04:44:20;;;;;;;1.93;1.83;;;;;;;;;;4969251;28;20530;-68
2023/03/24 04:46:47;;;;;;;3.03;1.70;;;;;;;;;;4968548;28;20461;-68
2023/03/24 04:49:13;;;;;;;1.97;1.87;;;;;;;;;;4975466;28;20444;-68
2023/03/24 04:51:40;;;;;;;1.97;1.87;;;;;;;;;;4970585;28;20434;-68
2023/03/24 04:54:05;;;;;;;1.80;1.80;;;;;;;;;;4968481;28;20426;-68
2023/03/24 04:56:40;;;;;;;5.73;1.87;;;;;;;;;;4968753;28;20429;-68
2023/03/24 04:59:07;;;;;;;1.90;1.80;;;;;;;;;;4969163;28;20881;-68
2023/03/24 05:01:36;;;;;;;1.60;1.60;;;;;;;;;;4967992;28;20581;-68
2023/03/24 05:04:03;;;;;;;2.23;2.13;;;;;;;;;;4967994;28;20967;-68
2023/03/24 05:06:29;;;;;;;1.97;1.87;;;;;;;;;;4967965;28;20440;-68
2023/03/24 05:08:57;;;;;;;2.57;1.60;;;;;;;;;;4968623;28;20790;-69
2023/03/24 05:11:24;;;;;;;1.83;1.73;;;;;;;;;;4968376;28;20585;-68
2023/03/24 05:13:50;;;;;;;1.57;1.57;;;;;;;;;;4967822;28;20492;-68
2023/03/24 05:16:16;;;;;;;2.03;1.97;;;;;;;;;;4975511;28;20442;-68
2023/03/24 05:18:42;;;;;;;1.73;1.67;;;;;;;;;;4968038;28;20829;-69
2023/03/24 05:21:08;;;;;;;1.80;1.70;;;;;;;;;;4967718;28;20534;-68
2023/03/24 05:23:34;;;;;;;2.30;2.10;;;;;;;;;;4986924;28;20503;-68
2023/03/24 05:26:00;;;;;;;2.13;2.03;;;;;;;;;;4966344;28;20438;-69
2023/03/24 05:28:26;;;;;;;1.90;1.90;;;;;;;;;;4966712;28;20422;-68
2023/03/24 05:30:52;;;;;;;1.83;1.73;;;;;;;;;;4965968;28;20877;-68
2023/03/24 05:33:19;;;;;;;2.00;1.77;;;;;;;;;;4966074;28;20461;-68
2023/03/24 05:35:45;;;;;;;1.87;1.87;;;;;;;;;;4964968;28;20472;-68
2023/03/24 05:38:11;;;;;;;2.03;2.03;;;;;;;;;;4968562;28;21166;-69
2023/03/24 05:40:37;;;;;;;2.20;2.10;;;;;;;;;;4969166;28;20485;-68
2023/03/24 05:43:03;;;;;;;2.20;2.10;;;;;;;;;;4966022;28;20430;-68
2023/03/24 05:45:29;;;;;;;2.80;2.60;;;;;;;;;;4980517;28;20462;-68
2023/03/24 05:47:55;;;;;;;2.00;1.90;;;;;;;;;;4965767;28;20517;-69
2023/03/24 05:50:23;;;;;;;2.20;2.20;;;;;;;;;;4965227;28;20544;-68
2023/03/24 05:52:49;;;;;;;1.73;1.73;;;;;;;;;;4973106;28;20437;-69
2023/03/24 05:55:16;;;;;;;1.90;1.80;;;;;;;;;;4967585;28;20440;-68
2023/03/24 05:57:42;;;;;;;2.77;2.47;;;;;;;;;;4967870;28;20465;-69
2023/03/24 06:00:14;;;;;;;8.87;2.20;;;;;;;;;;4967108;28;20469;-68
2023/03/24 06:02:40;;;;;;;2.80;2.10;;;;;;;;;;4967698;28;20444;-68
2023/03/24 06:05:07;;;;;;;3.70;3.40;;;;;;;;;;4967323;28;20449;-68
2023/03/24 06:07:33;;;;;;;1.80;1.80;;;;;;;;;;4967347;28;20884;-68
2023/03/24 06:10:02;;;;;;;2.30;1.80;;;;;;;;;;4967957;28;20918;-68
2023/03/24 06:12:29;;;;;;;3.27;3.00;;;;;;;;;;4984156;28;20480;-68
2023/03/24 06:14:55;;;;;;;2.70;2.00;;;;;;;;;;4971175;28;21690;-68
2023/03/24 06:17:23;;;;;;;2.07;2.03;;;;;;;;;;4971524;28;20429;-68
2023/03/24 06:19:49;;;;;;;2.17;2.17;;;;;;;;;;4971433;28;20520;-68
2023/03/24 06:22:18;;;;;;;2.10;2.00;;;;;;;;;;4971227;28;20509;-69
2023/03/24 06:24:45;;;;;;;5.67;2.30;;;;;;;;;;4970816;28;20422;-68
2023/03/24 06:27:13;;;;;;;6.73;2.43;;;;;;;;;;4971624;28;20926;-68
2023/03/24 06:29:41;;;;;;;2.50;2.30;;;;;;;;;;4971064;28;20422;-68
2023/03/24 06:32:07;;;;;;;1.77;1.77;;;;;;;;;;4971444;28;20518;-68
2023/03/24 06:34:33;;;;;;;2.23;2.03;;;;;;;;;;4970858;28;20425;-68
2023/03/24 06:37:00;;;;;;;6.43;2.60;;;;;;;;;;4983000;28;20950;-68
2023/03/24 06:39:26;;;;;;;2.73;2.50;;;;;;;;;;4970960;28;20458;-68
2023/03/24 06:41:52;;;;;;;2.80;2.20;;;;;;;;;;4971646;28;20478;-68
2023/03/24 06:44:18;;;;;;;2.10;1.90;;;;;;;;;;4970634;28;20986;-68
2023/03/24 06:46:46;;;;;;;1.80;1.80;;;;;;;;;;4970765;28;20453;-69
2023/03/24 06:49:12;;;;;;;3.13;2.77;;;;;;;;;;4982360;28;20853;-68
2023/03/24 06:51:37;;;;;;;2.33;2.23;;;;;;;;;;4970073;28;20437;-69
2023/03/24 06:54:03;;;;;;;3.37;2.00;;;;;;;;;;4970583;28;20424;-68
2023/03/24 06:56:30;;;;;;;2.47;2.30;;;;;;;;;;4985535;28;20588;-68
2023/03/24 06:58:56;;;;;;;2.60;2.60;;;;;;;;;;4970570;28;20507;-68
2023/03/24 07:01:25;;;;;;;2.33;2.33;;;;;;;;;;4967457;28;20577;-70
2023/03/24 07:03:52;;;;;;;2.13;2.03;;;;;;;;;;4970675;28;20425;-71
2023/03/24 07:06:18;;;;;;;2.40;2.20;;;;;;;;;;4969336;28;20445;-71
2023/03/24 07:08:44;;;;;;;2.30;2.20;;;;;;;;;;4969882;28;20448;-68
2023/03/24 07:11:10;;;;;;;2.40;2.20;;;;;;;;;;4970173;28;20446;-68
2023/03/24 07:13:37;;;;;;;2.50;2.30;;;;;;;;;;4969964;28;20476;-69
2023/03/24 07:16:03;;;;;;;2.67;2.20;;;;;;;;;;4969455;28;20442;-68
2023/03/24 07:18:29;;;;;;;2.70;2.60;;;;;;;;;;4971030;28;20441;-68
2023/03/24 07:20:55;;;;;;;2.70;2.60;;;;;;;;;;4969240;28;20568;-69
2023/03/24 07:23:21;;;;;;;3.10;2.90;;;;;;;;;;4969241;28;21625;-68
2023/03/24 07:25:47;;;;;;;2.40;2.30;;;;;;;;;;4969802;28;20528;-69
2023/03/24 07:28:13;;;;;;;2.27;2.17;;;;;;;;;;4986851;28;20648;-71
2023/03/24 07:30:39;;;;;;;3.33;2.30;;;;;;;;;;4971058;28;20448;-69
2023/03/24 07:33:06;;;;;;;3.40;3.10;;;;;;;;;;4970260;28;20501;-69
2023/03/24 07:35:32;;;;;;;2.53;2.33;;;;;;;;;;4968490;28;20457;-69
2023/03/24 07:37:59;;;;;;;2.17;2.17;;;;;;;;;;4976291;28;20521;-69
2023/03/24 07:40:25;;;;;;;2.07;2.07;;;;;;;;;;4969565;28;20481;-70
2023/03/24 07:42:51;;;;;;;3.03;2.43;;;;;;;;;;4969448;28;20418;-69
2023/03/24 07:45:17;;;;;;;2.60;2.40;;;;;;;;;;4967487;28;20803;-68
2023/03/24 07:47:44;;;;;;;2.90;2.80;;;;;;;;;;4972644;28;21014;-68
2023/03/24 07:50:10;;;;;;;2.93;2.77;;;;;;;;;;4975107;28;20444;-68
2023/03/24 07:52:40;;;;;;;1.90;1.90;;;;;;;;;;4969094;28;20449;-68
2023/03/24 07:55:10;;;;;;;3.90;2.70;;;;;;;;;;4973368;28;20460;-68
2023/03/24 07:57:36;;;;;;;2.50;2.50;;;;;;;;;;4976038;28;20430;-67
2023/03/24 08:00:19;;;;;;;2.40;2.30;;;;;;;;;;4988172;28;20521;-68
2023/03/24 08:02:46;;;;;;;2.40;2.30;;;;;;;;;;4976198;28;20580;-68
2023/03/24 08:05:15;;;;;;;4.40;1.97;;;;;;;;;;4976661;28;20917;-68
2023/03/24 08:07:41;;;;;;;1.60;1.60;;;;;;;;;;4977612;28;20433;-68
2023/03/24 08:10:09;;;;;;;2.33;2.23;;;;;;;;;;4976912;28;20424;-68
2023/03/24 08:12:35;;;;;;;2.23;2.23;;;;;;;;;;4972390;28;21050;-68
2023/03/24 08:15:00;;;;;;;4.73;3.17;;;;;;;;;;4969464;28;20454;-68
2023/03/24 08:17:26;;;;;;;2.13;2.03;;;;;;;;;;4968083;28;21028;-69
2023/03/24 08:19:52;;;;;;;2.50;2.33;;;;;;;;;;4967375;28;20434;-69
2023/03/24 08:22:18;;;;;;;2.63;2.40;;;;;;;;;;4968001;28;20588;-68
2023/03/24 08:24:44;;;;;;;2.43;2.23;;;;;;;;;;4969811;28;21201;-68
2023/03/24 08:27:10;;;;;;;3.43;2.30;;;;;;;;;;4974776;28;21704;-69
2023/03/24 08:29:36;;;;;;;2.50;2.13;;;;;;;;;;4977185;28;20432;-69
2023/03/24 08:32:02;;;;;;;1.83;1.73;;;;;;;;;;4989405;28;20445;-68
2023/03/24 08:34:28;;;;;;;2.17;2.00;;;;;;;;;;4976458;28;20827;-68
2023/03/24 08:36:54;;;;;;;1.67;1.67;;;;;;;;;;4976269;28;20528;-69
2023/03/24 08:39:23;;;;;;;1.73;1.73;;;;;;;;;;4969033;28;20456;-69
2023/03/24 08:41:49;;;;;;;7.93;1.80;;;;;;;;;;4968079;28;21230;-69
2023/03/24 08:44:15;;;;;;;1.60;1.60;;;;;;;;;;4968381;28;20426;-68
2023/03/24 08:46:41;;;;;;;2.77;1.37;;;;;;;;;;4981275;28;20623;-68
2023/03/24 08:49:07;;;;;;;1.67;1.57;;;;;;;;;;4967819;28;20444;-68
2023/03/24 08:51:33;;;;;;;1.83;1.40;;;;;;;;;;4976613;28;20944;-68
2023/03/24 08:54:02;;;;;;;1.80;1.70;;;;;;;;;;4968810;28;20414;-69
2023/03/24 08:56:28;;;;;;;1.60;1.60;;;;;;;;;;4969616;28;20838;-69
2023/03/24 08:58:54;;;;;;;1.70;1.60;;;;;;;;;;4968762;28;20954;-68
2023/03/24 09:01:21;;;;;;;3.70;2.00;;;;;;;;;;4973643;28;20484;-69
2023/03/24 09:03:47;;;;;;;1.70;1.60;;;;;;;;;;5007659;28;20421;-68
2023/03/24 09:06:14;;;;;;;1.43;1.40;;;;;;;;;;4968783;28;20548;-68
2023/03/24 09:08:40;;;;;;;3.07;1.73;;;;;;;;;;4975091;28;21230;-68
2023/03/24 09:11:06;;;;;;;1.90;1.90;;;;;;;;;;4976565;28;20433;-69
2023/03/24 09:13:32;;;;;;;2.63;2.40;;;;;;;;;;4975927;28;20466;-68
2023/03/24 09:16:00;;;;;;;2.10;2.03;;;;;;;;;;4977292;28;20430;-68
2023/03/24 09:18:26;;;;;;;2.40;1.40;;;;;;;;;;4976252;28;21916;-69
2023/03/24 09:20:52;;;;;;;2.00;2.00;;;;;;;;;;5007642;28;20522;-68
2023/03/24 09:23:19;;;;;;;1.40;1.40;;;;;;;;;;4976190;28;20520;-68
2023/03/24 09:25:45;;;;;;;1.30;1.30;;;;;;;;;;4982688;28;21168;-68
2023/03/24 09:28:12;;;;;;;1.27;1.27;;;;;;;;;;4975965;28;20429;-68
2023/03/24 09:30:38;;;;;;;2.63;1.83;;;;;;;;;;4975089;28;20421;-69
2023/03/24 09:33:05;;;;;;;1.47;1.37;;;;;;;;;;4976326;28;20456;-68
2023/03/24 09:35:31;;;;;;;1.40;1.40;;;;;;;;;;4975221;28;20422;-69
2023/03/24 09:37:57;;;;;;;1.50;1.50;;;;;;;;;;4988601;28;20433;-69
2023/03/24 09:40:24;;;;;;;2.67;1.87;;;;;;;;;;5007355;28;20495;-68
2023/03/24 09:43:11;;;;;;;1.57;1.47;;;;;;;;;;4976486;28;20444;-68
2023/03/24 09:45:42;;;;;;;2.00;1.80;;;;;;;;;;4964396;28;20421;-68
2023/03/24 09:48:19;;;;;;;1.67;1.67;;;;;;;;;;4976221;28;20827;-69
2023/03/24 09:50:51;;;;;;;2.47;1.33;;;;;;;;;;5007162;28;20532;-68
2023/03/24 09:53:27;;;;;;;1.03;1.03;;;;;;;;;;4976365;28;20520;-68
2023/03/24 09:55:53;;;;;;;1.33;1.33;;;;;;;;;;4975680;28;21012;-69
2023/03/24 09:58:20;;;;;;;1.27;1.27;;;;;;;;;;4975978;28;20429;-69
2023/03/24 10:00:46;;;;;;;0.90;0.90;;;;;;;;;;4975519;28;20501;-68
2023/03/24 10:03:22;;;;;;;1.10;1.10;;;;;;;;;;4975242;28;20440;-69
2023/03/24 10:06:04;;;;;;;1.00;1.00;;;;;;;;;;4971959;28;20426;-68
2023/03/24 10:08:35;;;;;;;0.90;0.90;;;;;;;;;;4967859;28;20438;-68
2023/03/24 10:11:08;;;;;;;0.90;0.90;;;;;;;;;;4982313;28;20562;-68
2023/03/24 10:13:37;;;;;;;1.13;0.90;;;;;;;;;;4967380;28;20477;-69
2023/03/24 10:16:07;;;;;;;1.10;1.10;;;;;;;;;;4969775;28;20429;-68
2023/03/24 10:19:02;;;;;;;2.40;1.60;;;;;;;;;;4968809;28;20475;-69
2023/03/24 10:21:31;;;;;;;1.50;1.20;;;;;;;;;;4947809;28;20578;-68
2023/03/24 10:24:00;;;;;;;0.93;0.87;;;;;;;;;;4966983;28;20445;-69
2023/03/24 10:26:32;;;;;;;1.30;1.20;;;;;;;;;;4967585;28;20457;-69
2023/03/24 10:29:17;;;;;;;1.03;1.03;;;;;;;;;;4968130;28;20945;-69
2023/03/24 10:31:45;;;;;;;1.47;1.00;;;;;;;;;;4970149;28;20476;-68
2023/03/24 10:34:11;;;;;;;2.20;0.90;;;;;;;;;;4975116;28;20421;-69
2023/03/24 10:36:38;;;;;;;0.83;0.83;;;;;;;;;;4974242;28;20666;-69
2023/03/24 10:39:05;;;;;;;0.83;0.83;;;;;;;;;;4966548;28;20464;-68
2023/03/24 10:41:32;;;;;;;0.50;0.50;;;;;;;;;;4967817;28;20486;-69
2023/03/24 10:43:59;;;;;;;1.20;1.20;;;;;;;;;;4966787;28;20469;-68
2023/03/24 10:46:27;;;;;;;0.63;0.63;;;;;;;;;;4969815;28;21021;-68
2023/03/24 10:49:05;;;;;;;0.70;0.63;;;;;;;;;;4968579;28;20455;-69
2023/03/24 10:51:35;;;;;;;1.27;0.80;;;;;;;;;;4966932;28;20433;-69
2023/03/24 10:54:20;;;;;;;0.57;0.57;;;;;;;;;;4966488;28;20430;-70
2023/03/24 10:56:48;;;;;;;1.13;0.70;;;;;;;;;;4973168;28;20536;-69
2023/03/24 10:59:18;;;;;;;0.83;0.83;;;;;;;;;;4968763;28;20918;-69
2023/03/24 11:01:44;;;;;;;0.50;0.50;;;;;;;;;;4968194;28;21051;-69
2023/03/24 11:04:13;;;;;;;0.60;0.60;;;;;;;;;;4967985;28;20810;-69
2023/03/24 11:06:52;;;;;;;0.60;0.60;;;;;;;;;;4983279;28;20449;-68
2023/03/24 11:09:20;;;;;;;2.20;0.53;;;;;;;;;;4967149;28;20442;-68
2023/03/24 11:11:46;;;;;;;0.50;0.50;;;;;;;;;;4975174;28;20507;-69
2023/03/24 11:14:21;;;;;;;0.87;0.50;;;;;;;;;;4971599;28;20441;-70
2023/03/24 11:16:47;;;;;;;1.07;0.60;;;;;;;;;;4971600;28;20480;-69
2023/03/24 11:19:18;;;;;;;0.90;0.90;;;;;;;;;;4970549;28;20894;-68
2023/03/24 11:21:44;;;;;;;0.37;0.37;;;;;;;;;;4985231;28;20498;-69
2023/03/24 11:24:11;;;;;;;0.77;0.77;;;;;;;;;;4971205;28;20496;-69
2023/03/24 11:26:38;;;;;;;1.40;0.40;;;;;;;;;;4970190;28;20489;-69
2023/03/24 11:29:08;;;;;;;4.93;4.63;;;;;;;;;;4970147;28;21073;-68
2023/03/24 11:31:39;;;;;;;0.97;0.93;;;;;;;;;;4972613;28;20658;-68
2023/03/24 11:34:23;;;;;;;1.00;1.00;;;;;;;;;;4968995;28;20469;-68
2023/03/24 11:36:57;;;;;;;24.57;13.37;;;;;;;;;;4974753;28;20848;-68
2023/03/24 11:39:24;;;;;;;0.70;0.70;;;;;;;;;;4967990;28;20441;-69
2023/03/24 11:42:02;;;;;;;0.70;0.70;;;;;;;;;;4978180;28;20503;-68
2023/03/24 11:44:41;;;;;;;2.43;0.70;;;;;;;;;;4977487;28;20924;-68
2023/03/24 11:47:13;;;;;;;0.40;0.40;;;;;;;;;;4977607;28;20429;-68
2023/03/24 11:49:41;;;;;;;7.00;0.80;;;;;;;;;;4977598;28;20524;-68
2023/03/24 11:52:11;;;;;;;0.70;0.70;;;;;;;;;;4978858;28;20426;-69
2023/03/24 11:54:37;;;;;;;0.47;0.47;;;;;;;;;;4978071;28;20439;-69
2023/03/24 11:57:05;;;;;;;0.90;0.90;;;;;;;;;;4977674;28;20479;-68
2023/03/24 11:59:42;;;;;;;1.00;1.00;;;;;;;;;;4977578;28;20418;-68
2023/03/24 12:02:11;;;;;;;0.60;0.60;;;;;;;;;;4977718;28;20480;-68
2023/03/24 12:04:37;;;;;;;0.50;0.50;;;;;;;;;;4977272;28;20513;-68
2023/03/24 12:07:13;;;;;;;0.63;0.63;;;;;;;;;;4978349;28;20934;-68
2023/03/24 12:09:48;;;;;;;2.90;0.50;;;;;;;;;;4988682;28;20444;-69
2023/03/24 12:12:27;;;;;;;0.60;0.60;;;;;;;;;;4977118;28;20469;-68
2023/03/24 12:14:53;;;;;;;0.50;0.50;;;;;;;;;;4977307;28;20436;-69
2023/03/24 12:17:23;;;;;;;0.60;0.60;;;;;;;;;;4978045;28;20814;-68
2023/03/24 12:19:55;;;;;;;0.40;0.40;;;;;;;;;;4977143;28;20923;-68
2023/03/24 12:22:28;;;;;;;0.83;0.83;;;;;;;;;;4977675;28;20575;-68
2023/03/24 12:25:03;;;;;;;0.50;0.50;;;;;;;;;;4977532;28;20428;-68
2023/03/24 12:27:43;;;;;;;0.93;0.67;;;;;;;;;;4977602;28;20946;-68
2023/03/24 12:30:24;;;;;;;4.53;0.60;;;;;;;;;;4977168;28;20440;-68
2023/03/24 12:33:16;;;;;;;0.80;0.80;;;;;;;;;;4983996;28;20438;-68
2023/03/24 12:35:46;;;;;;;0.60;0.60;;;;;;;;;;4976722;28;20438;-68
2023/03/24 12:38:33;;;;;;;1.23;0.90;;;;;;;;;;4977364;28;20443;-69
2023/03/24 12:41:21;;;;;;;0.63;0.63;;;;;;;;;;4974341;28;20507;-68
2023/03/24 12:43:47;;;;;;;0.40;0.40;;;;;;;;;;5007705;28;20794;-69
2023/03/24 12:46:31;;;;;;;0.60;0.60;;;;;;;;;;4977286;28;20429;-68
2023/03/24 12:49:06;;;;;;;1.00;1.00;;;;;;;;;;4976091;28;20497;-68
2023/03/24 12:51:41;;;;;;;0.50;0.50;;;;;;;;;;5008447;28;20433;-68
2023/03/24 12:54:19;;;;;;;0.70;0.60;;;;;;;;;;4989201;28;20475;-69
2023/03/24 12:56:48;;;;;;;1.13;1.07;;;;;;;;;;4980880;28;20504;-69
2023/03/24 12:59:19;;;;;;;0.63;0.63;;;;;;;;;;4974263;28;21234;-68
2023/03/24 13:01:47;;;;;;;0.53;0.53;;;;;;;;;;4969785;28;20493;-68
2023/03/24 13:04:16;;;;;;;1.00;0.83;;;;;;;;;;4986639;28;21189;-69
2023/03/24 13:07:05;;;;;;;0.87;0.87;;;;;;;;;;4975041;28;20541;-68
2023/03/24 13:09:45;;;;;;;1.03;0.50;;;;;;;;;;4972434;28;20425;-69
2023/03/24 13:12:46;;;;;;;0.60;0.60;;;;;;;;;;4976649;28;20911;-69
2023/03/24 13:15:12;;;;;;;1.03;0.60;;;;;;;;;;4974220;28;20472;-68
2023/03/24 13:17:50;;;;;;;1.27;1.00;;;;;;;;;;4974235;28;20442;-68
2023/03/24 13:20:22;;;;;;;0.90;0.90;;;;;;;;;;4974912;28;20467;-69
2023/03/24 13:22:48;;;;;;;5.20;0.87;;;;;;;;;;4988884;28;20502;-68
2023/03/24 13:25:31;;;;;;;0.90;0.67;;;;;;;;;;4976162;28;20968;-68
2023/03/24 13:27:59;;;;;;;0.47;0.47;;;;;;;;;;4973207;28;20485;-68
2023/03/24 13:30:30;;;;;;;1.40;1.30;;;;;;;;;;4973254;28;20441;-68
2023/03/24 13:32:59;;;;;;;0.77;0.77;;;;;;;;;;4976466;28;20439;-68
2023/03/24 13:35:43;;;;;;;1.80;0.80;;;;;;;;;;4975310;28;20448;-69
2023/03/24 13:38:26;;;;;;;0.60;0.60;;;;;;;;;;4974487;28;20575;-69
2023/03/24 13:40:53;;;;;;;4.70;0.80;;;;;;;;;;4991236;28;20490;-68
2023/03/24 13:43:24;;;;;;;2.70;0.90;;;;;;;;;;4974491;28;20437;-68
2023/03/24 13:45:51;;;;;;;2.00;0.80;;;;;;;;;;4973901;28;20422;-68
2023/03/24 13:48:25;;;;;;;0.60;0.60;;;;;;;;;;4968002;28;21117;-69
2023/03/24 13:50:51;;;;;;;1.90;0.50;;;;;;;;;;4968375;28;20433;-68
2023/03/24 13:53:24;;;;;;;1.07;0.60;;;;;;;;;;4965922;28;20433;-68
2023/03/24 13:55:51;;;;;;;0.73;0.60;;;;;;;;;;4965087;28;21008;-68
2023/03/24 13:58:17;;;;;;;0.50;0.50;;;;;;;;;;4966010;28;20434;-68
2023/03/24 14:01:02;;;;;;;0.43;0.43;;;;;;;;;;4980473;28;20882;-68
2023/03/24 14:03:32;;;;;;;0.53;0.53;;;;;;;;;;4996578;28;20421;-68
2023/03/24 14:06:00;;;;;;;0.93;0.60;;;;;;;;;;4964517;28;20442;-68
2023/03/24 14:08:48;;;;;;;1.20;1.20;;;;;;;;;;4966001;28;20469;-68
2023/03/24 14:11:33;;;;;;;0.47;0.47;;;;;;;;;;4966040;28;20450;-68
2023/03/24 14:14:25;;;;;;;0.40;0.40;;;;;;;;;;4967305;28;21000;-70
2023/03/24 14:16:51;;;;;;;0.53;0.53;;;;;;;;;;4967561;28;20540;-69
2023/03/24 14:19:30;;;;;;;0.60;0.50;;;;;;;;;;4967178;28;20529;-68
2023/03/24 14:22:04;;;;;;;3.70;0.40;;;;;;;;;;4967812;28;20493;-69
2023/03/24 14:24:31;;;;;;;0.70;0.70;;;;;;;;;;4971666;28;20445;-68
2023/03/24 14:26:58;;;;;;;0.53;0.53;;;;;;;;;;4959363;28;20536;-69
2023/03/24 14:29:43;;;;;;;0.50;0.50;;;;;;;;;;4982158;28;20437;-68
2023/03/24 14:32:14;;;;;;;1.27;0.77;;;;;;;;;;4976731;28;20456;-70
2023/03/24 14:34:49;;;;;;;0.80;0.70;;;;;;;;;;4979947;28;20795;-70
2023/03/24 14:37:15;;;;;;;0.53;0.53;;;;;;;;;;4977981;28;20448;-68
2023/03/24 14:39:41;;;;;;;2.00;0.80;;;;;;;;;;4979517;28;20420;-68
2023/03/24 14:42:27;;;;;;;0.70;0.63;;;;;;;;;;5008497;28;20489;-70
2023/03/24 14:44:53;;;;;;;0.57;0.57;;;;;;;;;;4979762;28;20433;-71
2023/03/24 14:47:29;;;;;;;3.40;0.40;;;;;;;;;;4975930;28;20440;-68
2023/03/24 14:49:56;;;;;;;0.77;0.77;;;;;;;;;;4978807;28;20443;-69
2023/03/24 14:52:25;;;;;;;0.50;0.50;;;;;;;;;;4979017;28;20498;-68
2023/03/24 14:54:52;;;;;;;0.50;0.50;;;;;;;;;;4978775;28;20440;-68
2023/03/24 14:57:25;;;;;;;0.40;0.40;;;;;;;;;;4977939;28;20454;-69
2023/03/24 14:59:54;;;;;;;0.77;0.77;;;;;;;;;;4978553;28;20925;-69